sensor_id;sensor_type;location;lat;lon;timestamp;temperature;humidity
25024;DHT22;13033;50.936;5.334;2022-07-29T00:02:07;19.00;43.60
25024;DHT22;13033;50.936;5.334;2022-07-29T00:04:34;19.00;38.50
25024;DHT22;13033;50.936;5.334;2022-07-29T00:07:00;19.00;42.50
25024;DHT22;13033;50.936;5.334;2022-07-29T00:09:26;19.10;40.60
25024;DHT22;13033;50.936;5.334;2022-07-29T00:11:52;19.10;36.80
25024;DHT22;13033;50.936;5.334;2022-07-29T00:14:17;19.20;34.70
25024;DHT22;13033;50.936;5.334;2022-07-29T00:16:43;19.00;40.50
25024;DHT22;13033;50.936;5.334;2022-07-29T00:19:09;19.00;41.50
25024;DHT22;13033;50.936;5.334;2022-07-29T00:21:34;19.00;46.20
25024;DHT22;13033;50.936;5.334;2022-07-29T00:24:00;19.10;42.90
25024;DHT22;13033;50.936;5.334;2022-07-29T00:26:26;19.20;46.10
25024;DHT22;13033;50.936;5.334;2022-07-29T00:28:53;19.00;50.20
25024;DHT22;13033;50.936;5.334;2022-07-29T00:31:18;19.00;54.20
25024;DHT22;13033;50.936;5.334;2022-07-29T00:33:44;18.90;59.70
25024;DHT22;13033;50.936;5.334;2022-07-29T00:36:09;18.90;59.20
25024;DHT22;13033;50.936;5.334;2022-07-29T00:38:35;18.90;57.40
25024;DHT22;13033;50.936;5.334;2022-07-29T00:41:01;18.90;54.00
25024;DHT22;13033;50.936;5.334;2022-07-29T00:43:26;18.90;49.70
25024;DHT22;13033;50.936;5.334;2022-07-29T00:45:52;18.90;52.00
25024;DHT22;13033;50.936;5.334;2022-07-29T00:48:18;18.90;48.70
25024;DHT22;13033;50.936;5.334;2022-07-29T00:50:43;18.70;47.70
25024;DHT22;13033;50.936;5.334;2022-07-29T00:53:11;18.70;50.00
25024;DHT22;13033;50.936;5.334;2022-07-29T00:55:37;18.70;40.60
25024;DHT22;13033;50.936;5.334;2022-07-29T00:58:03;18.70;30.50
25024;DHT22;13033;50.936;5.334;2022-07-29T01:00:29;18.60;33.50
25024;DHT22;13033;50.936;5.334;2022-07-29T01:02:55;18.60;27.20
25024;DHT22;13033;50.936;5.334;2022-07-29T01:05:22;18.60;28.70
25024;DHT22;13033;50.936;5.334;2022-07-29T01:07:52;18.60;27.70
25024;DHT22;13033;50.936;5.334;2022-07-29T01:10:19;18.60;21.80
25024;DHT22;13033;50.936;5.334;2022-07-29T01:12:48;18.80;14.00
25024;DHT22;13033;50.936;5.334;2022-07-29T01:15:15;18.90;16.00
25024;DHT22;13033;50.936;5.334;2022-07-29T01:18:16;19.00;5.40
25024;DHT22;13033;50.936;5.334;2022-07-29T01:23:47;18.90;8.60
25024;DHT22;13033;50.936;5.334;2022-07-29T01:26:42;18.90;19.90
25024;DHT22;13033;50.936;5.334;2022-07-29T01:29:25;18.80;14.70
25024;DHT22;13033;50.936;5.334;2022-07-29T01:32:11;18.70;20.90
25024;DHT22;13033;50.936;5.334;2022-07-29T01:34:57;18.70;20.00
25024;DHT22;13033;50.936;5.334;2022-07-29T01:40:14;18.90;30.80
25024;DHT22;13033;50.936;5.334;2022-07-29T01:42:54;18.80;25.70
25024;DHT22;13033;50.936;5.334;2022-07-29T01:45:40;18.70;40.40
25024;DHT22;13033;50.936;5.334;2022-07-29T01:50:47;18.70;42.80
25024;DHT22;13033;50.936;5.334;2022-07-29T01:53:16;18.50;51.20
25024;DHT22;13033;50.936;5.334;2022-07-29T01:55:44;18.50;52.50
25024;DHT22;13033;50.936;5.334;2022-07-29T01:58:12;18.40;54.80
25024;DHT22;13033;50.936;5.334;2022-07-29T02:00:39;18.60;53.30
25024;DHT22;13033;50.936;5.334;2022-07-29T02:03:09;18.60;54.70
25024;DHT22;13033;50.936;5.334;2022-07-29T02:05:38;18.50;57.00
25024;DHT22;13033;50.936;5.334;2022-07-29T02:08:05;18.50;53.50
25024;DHT22;13033;50.936;5.334;2022-07-29T02:10:33;18.40;56.70
25024;DHT22;13033;50.936;5.334;2022-07-29T02:12:59;18.20;62.90
25024;DHT22;13033;50.936;5.334;2022-07-29T02:15:29;18.00;66.50
25024;DHT22;13033;50.936;5.334;2022-07-29T02:18:02;17.80;72.00
25024;DHT22;13033;50.936;5.334;2022-07-29T02:20:29;17.60;76.70
25024;DHT22;13033;50.936;5.334;2022-07-29T02:22:57;17.60;80.90
25024;DHT22;13033;50.936;5.334;2022-07-29T02:25:24;17.60;83.80
25024;DHT22;13033;50.936;5.334;2022-07-29T02:27:51;17.80;80.00
25024;DHT22;13033;50.936;5.334;2022-07-29T02:30:18;17.80;76.70
25024;DHT22;13033;50.936;5.334;2022-07-29T02:32:45;17.70;78.10
25024;DHT22;13033;50.936;5.334;2022-07-29T02:35:13;17.90;78.20
25024;DHT22;13033;50.936;5.334;2022-07-29T02:37:41;17.80;77.00
25024;DHT22;13033;50.936;5.334;2022-07-29T02:40:12;17.90;77.90
25024;DHT22;13033;50.936;5.334;2022-07-29T02:42:41;18.00;79.60
25024;DHT22;13033;50.936;5.334;2022-07-29T02:45:08;18.10;82.00
25024;DHT22;13033;50.936;5.334;2022-07-29T02:47:37;18.00;79.50
25024;DHT22;13033;50.936;5.334;2022-07-29T02:50:16;18.10;78.50
25024;DHT22;13033;50.936;5.334;2022-07-29T02:53:00;18.20;78.20
25024;DHT22;13033;50.936;5.334;2022-07-29T02:55:43;18.30;70.50
25024;DHT22;13033;50.936;5.334;2022-07-29T02:58:21;18.30;69.90
25024;DHT22;13033;50.936;5.334;2022-07-29T03:00:48;18.20;72.80
25024;DHT22;13033;50.936;5.334;2022-07-29T03:03:17;18.40;75.20
25024;DHT22;13033;50.936;5.334;2022-07-29T03:05:43;18.50;75.00
25024;DHT22;13033;50.936;5.334;2022-07-29T03:08:11;18.60;62.70
25024;DHT22;13033;50.936;5.334;2022-07-29T03:10:38;18.50;63.60
25024;DHT22;13033;50.936;5.334;2022-07-29T03:13:05;18.40;64.40
25024;DHT22;13033;50.936;5.334;2022-07-29T03:15:31;18.30;64.50
25024;DHT22;13033;50.936;5.334;2022-07-29T03:17:58;18.40;66.30
25024;DHT22;13033;50.936;5.334;2022-07-29T03:20:26;18.50;65.10
25024;DHT22;13033;50.936;5.334;2022-07-29T03:22:52;18.70;63.60
25024;DHT22;13033;50.936;5.334;2022-07-29T03:25:19;18.80;59.80
25024;DHT22;13033;50.936;5.334;2022-07-29T03:27:46;18.90;56.40
25024;DHT22;13033;50.936;5.334;2022-07-29T03:30:12;18.90;55.40
25024;DHT22;13033;50.936;5.334;2022-07-29T03:32:39;18.90;53.30
25024;DHT22;13033;50.936;5.334;2022-07-29T03:35:05;18.80;56.20
25024;DHT22;13033;50.936;5.334;2022-07-29T03:37:31;18.90;59.00
25024;DHT22;13033;50.936;5.334;2022-07-29T03:39:59;18.80;62.30
25024;DHT22;13033;50.936;5.334;2022-07-29T03:42:30;18.90;63.60
25024;DHT22;13033;50.936;5.334;2022-07-29T03:44:57;18.90;59.80
25024;DHT22;13033;50.936;5.334;2022-07-29T03:47:26;18.70;60.40
25024;DHT22;13033;50.936;5.334;2022-07-29T03:49:59;18.20;74.40
25024;DHT22;13033;50.936;5.334;2022-07-29T03:52:26;18.20;82.40
25024;DHT22;13033;50.936;5.334;2022-07-29T03:54:52;18.30;82.00
25024;DHT22;13033;50.936;5.334;2022-07-29T03:57:20;18.50;76.50
25024;DHT22;13033;50.936;5.334;2022-07-29T03:59:49;18.60;70.00
25024;DHT22;13033;50.936;5.334;2022-07-29T04:02:16;18.70;65.00
25024;DHT22;13033;50.936;5.334;2022-07-29T04:04:42;18.70;71.40
25024;DHT22;13033;50.936;5.334;2022-07-29T04:07:12;18.80;65.40
25024;DHT22;13033;50.936;5.334;2022-07-29T04:09:38;19.10;56.30
25024;DHT22;13033;50.936;5.334;2022-07-29T04:12:03;19.10;53.70
25024;DHT22;13033;50.936;5.334;2022-07-29T04:14:33;19.00;53.50
25024;DHT22;13033;50.936;5.334;2022-07-29T04:16:59;18.90;60.50
25024;DHT22;13033;50.936;5.334;2022-07-29T04:19:25;18.70;62.80
25024;DHT22;13033;50.936;5.334;2022-07-29T04:21:51;18.80;64.20
25024;DHT22;13033;50.936;5.334;2022-07-29T04:24:16;18.70;65.10
25024;DHT22;13033;50.936;5.334;2022-07-29T04:26:42;18.60;64.80
25024;DHT22;13033;50.936;5.334;2022-07-29T04:29:08;18.70;66.90
25024;DHT22;13033;50.936;5.334;2022-07-29T04:31:34;18.70;65.30
25024;DHT22;13033;50.936;5.334;2022-07-29T04:33:59;18.70;62.20
25024;DHT22;13033;50.936;5.334;2022-07-29T04:36:25;18.60;66.90
25024;DHT22;13033;50.936;5.334;2022-07-29T04:38:50;18.80;56.40
25024;DHT22;13033;50.936;5.334;2022-07-29T04:41:16;19.10;47.10
25024;DHT22;13033;50.936;5.334;2022-07-29T04:43:42;19.00;50.20
25024;DHT22;13033;50.936;5.334;2022-07-29T04:46:07;18.60;57.90
25024;DHT22;13033;50.936;5.334;2022-07-29T04:48:33;18.60;58.90
25024;DHT22;13033;50.936;5.334;2022-07-29T04:50:59;18.60;60.80
25024;DHT22;13033;50.936;5.334;2022-07-29T04:53:25;18.60;66.40
25024;DHT22;13033;50.936;5.334;2022-07-29T04:55:50;18.40;72.30
25024;DHT22;13033;50.936;5.334;2022-07-29T04:58:16;18.50;70.50
25024;DHT22;13033;50.936;5.334;2022-07-29T05:00:42;18.40;70.80
25024;DHT22;13033;50.936;5.334;2022-07-29T05:03:07;18.30;76.40
25024;DHT22;13033;50.936;5.334;2022-07-29T05:05:33;18.00;83.50
25024;DHT22;13033;50.936;5.334;2022-07-29T05:07:59;17.80;88.30
25024;DHT22;13033;50.936;5.334;2022-07-29T05:10:25;18.10;83.80
25024;DHT22;13033;50.936;5.334;2022-07-29T05:12:51;18.20;81.40
25024;DHT22;13033;50.936;5.334;2022-07-29T05:15:16;18.20;82.50
25024;DHT22;13033;50.936;5.334;2022-07-29T05:17:43;18.00;87.80
25024;DHT22;13033;50.936;5.334;2022-07-29T05:20:09;17.90;90.80
25024;DHT22;13033;50.936;5.334;2022-07-29T05:22:35;18.10;89.60
25024;DHT22;13033;50.936;5.334;2022-07-29T05:25:00;18.10;89.40
25024;DHT22;13033;50.936;5.334;2022-07-29T05:27:26;18.00;90.60
25024;DHT22;13033;50.936;5.334;2022-07-29T05:29:52;17.90;92.80
25024;DHT22;13033;50.936;5.334;2022-07-29T05:32:17;17.90;92.00
25024;DHT22;13033;50.936;5.334;2022-07-29T05:34:43;18.00;91.20
25024;DHT22;13033;50.936;5.334;2022-07-29T05:37:09;18.20;88.50
25024;DHT22;13033;50.936;5.334;2022-07-29T05:39:34;18.10;90.10
25024;DHT22;13033;50.936;5.334;2022-07-29T05:42:00;18.00;90.50
25024;DHT22;13033;50.936;5.334;2022-07-29T05:44:26;17.90;91.20
25024;DHT22;13033;50.936;5.334;2022-07-29T05:46:51;18.00;91.40
25024;DHT22;13033;50.936;5.334;2022-07-29T05:49:17;18.10;90.40
25024;DHT22;13033;50.936;5.334;2022-07-29T05:51:43;17.90;92.20
25024;DHT22;13033;50.936;5.334;2022-07-29T05:54:09;17.70;94.00
25024;DHT22;13033;50.936;5.334;2022-07-29T05:56:36;17.80;93.20
25024;DHT22;13033;50.936;5.334;2022-07-29T05:59:02;17.90;93.50
25024;DHT22;13033;50.936;5.334;2022-07-29T06:01:28;18.10;92.30
25024;DHT22;13033;50.936;5.334;2022-07-29T06:03:54;18.10;89.30
25024;DHT22;13033;50.936;5.334;2022-07-29T06:06:20;18.20;87.30
25024;DHT22;13033;50.936;5.334;2022-07-29T06:08:45;18.30;85.10
25024;DHT22;13033;50.936;5.334;2022-07-29T06:11:11;18.10;88.80
25024;DHT22;13033;50.936;5.334;2022-07-29T06:13:37;18.20;89.20
25024;DHT22;13033;50.936;5.334;2022-07-29T06:16:02;18.40;85.50
25024;DHT22;13033;50.936;5.334;2022-07-29T06:18:29;18.50;80.00
25024;DHT22;13033;50.936;5.334;2022-07-29T06:20:55;18.50;80.40
25024;DHT22;13033;50.936;5.334;2022-07-29T06:23:20;18.70;78.40
25024;DHT22;13033;50.936;5.334;2022-07-29T06:25:46;18.70;76.60
25024;DHT22;13033;50.936;5.334;2022-07-29T06:28:12;18.70;77.20
25024;DHT22;13033;50.936;5.334;2022-07-29T06:30:38;18.80;75.00
25024;DHT22;13033;50.936;5.334;2022-07-29T06:33:04;18.70;73.80
25024;DHT22;13033;50.936;5.334;2022-07-29T06:35:32;18.50;81.20
25024;DHT22;13033;50.936;5.334;2022-07-29T06:37:58;18.90;71.50
25024;DHT22;13033;50.936;5.334;2022-07-29T06:40:23;18.60;76.80
25024;DHT22;13033;50.936;5.334;2022-07-29T06:43:08;18.50;80.10
25024;DHT22;13033;50.936;5.334;2022-07-29T06:45:34;18.70;81.10
25024;DHT22;13033;50.936;5.334;2022-07-29T06:48:00;19.00;74.80
25024;DHT22;13033;50.936;5.334;2022-07-29T06:50:26;19.40;64.40
25024;DHT22;13033;50.936;5.334;2022-07-29T06:52:51;19.20;65.40
25024;DHT22;13033;50.936;5.334;2022-07-29T06:55:17;19.00;69.20
25024;DHT22;13033;50.936;5.334;2022-07-29T06:57:45;19.10;70.00
25024;DHT22;13033;50.936;5.334;2022-07-29T07:00:11;19.20;69.60
25024;DHT22;13033;50.936;5.334;2022-07-29T07:02:37;19.20;67.70
25024;DHT22;13033;50.936;5.334;2022-07-29T07:05:02;19.10;72.00
25024;DHT22;13033;50.936;5.334;2022-07-29T07:07:28;19.50;63.00
25024;DHT22;13033;50.936;5.334;2022-07-29T07:09:54;19.50;60.90
25024;DHT22;13033;50.936;5.334;2022-07-29T07:12:19;19.40;62.10
25024;DHT22;13033;50.936;5.334;2022-07-29T07:14:45;19.20;70.90
25024;DHT22;13033;50.936;5.334;2022-07-29T07:17:11;19.30;70.90
25024;DHT22;13033;50.936;5.334;2022-07-29T07:19:36;19.60;64.00
25024;DHT22;13033;50.936;5.334;2022-07-29T07:22:02;19.90;55.00
25024;DHT22;13033;50.936;5.334;2022-07-29T07:24:28;20.00;54.20
25024;DHT22;13033;50.936;5.334;2022-07-29T07:26:53;20.10;48.40
25024;DHT22;13033;50.936;5.334;2022-07-29T07:29:19;20.00;50.80
25024;DHT22;13033;50.936;5.334;2022-07-29T07:31:45;20.20;48.30
25024;DHT22;13033;50.936;5.334;2022-07-29T07:34:10;20.20;45.80
25024;DHT22;13033;50.936;5.334;2022-07-29T07:36:36;20.10;48.90
25024;DHT22;13033;50.936;5.334;2022-07-29T07:39:02;20.10;49.20
25024;DHT22;13033;50.936;5.334;2022-07-29T07:41:28;20.20;47.10
25024;DHT22;13033;50.936;5.334;2022-07-29T07:43:59;20.50;44.00
25024;DHT22;13033;50.936;5.334;2022-07-29T07:46:25;20.70;31.50
25024;DHT22;13033;50.936;5.334;2022-07-29T07:48:51;20.60;31.70
25024;DHT22;13033;50.936;5.334;2022-07-29T07:51:17;20.70;30.70
25024;DHT22;13033;50.936;5.334;2022-07-29T07:53:43;20.70;25.80
25024;DHT22;13033;50.936;5.334;2022-07-29T07:56:10;20.80;24.40
25024;DHT22;13033;50.936;5.334;2022-07-29T07:58:35;20.80;23.50
25024;DHT22;13033;50.936;5.334;2022-07-29T08:01:01;21.00;12.30
25024;DHT22;13033;50.936;5.334;2022-07-29T08:03:27;21.10;17.20
25024;DHT22;13033;50.936;5.334;2022-07-29T08:05:52;20.80;20.00
25024;DHT22;13033;50.936;5.334;2022-07-29T08:08:19;21.00;14.00
25024;DHT22;13033;50.936;5.334;2022-07-29T08:10:45;21.10;7.40
25024;DHT22;13033;50.936;5.334;2022-07-29T08:13:26;21.30;1.00
25024;DHT22;13033;50.936;5.334;2022-07-29T08:15:54;21.50;1.00
25024;DHT22;13033;50.936;5.334;2022-07-29T08:18:31;21.80;1.00
25024;DHT22;13033;50.936;5.334;2022-07-29T08:20:57;21.90;1.00
25024;DHT22;13033;50.936;5.334;2022-07-29T08:23:23;22.10;1.00
25024;DHT22;13033;50.936;5.334;2022-07-29T08:25:50;22.00;1.00
25024;DHT22;13033;50.936;5.334;2022-07-29T08:28:16;22.10;1.00
25024;DHT22;13033;50.936;5.334;2022-07-29T08:30:42;22.30;1.00
25024;DHT22;13033;50.936;5.334;2022-07-29T08:33:08;22.30;1.00
25024;DHT22;13033;50.936;5.334;2022-07-29T08:35:33;22.40;1.00
25024;DHT22;13033;50.936;5.334;2022-07-29T08:37:59;22.80;1.00
25024;DHT22;13033;50.936;5.334;2022-07-29T08:40:25;22.80;1.00
25024;DHT22;13033;50.936;5.334;2022-07-29T08:42:51;22.80;1.00
25024;DHT22;13033;50.936;5.334;2022-07-29T08:45:16;22.70;1.00
25024;DHT22;13033;50.936;5.334;2022-07-29T08:47:44;22.40;1.00
25024;DHT22;13033;50.936;5.334;2022-07-29T08:50:11;22.30;1.00
25024;DHT22;13033;50.936;5.334;2022-07-29T08:52:39;22.20;1.00
25024;DHT22;13033;50.936;5.334;2022-07-29T08:55:07;22.40;1.00
25024;DHT22;13033;50.936;5.334;2022-07-29T08:57:34;22.60;1.00
25024;DHT22;13033;50.936;5.334;2022-07-29T09:00:01;22.80;1.00
25024;DHT22;13033;50.936;5.334;2022-07-29T09:02:29;22.90;1.00
25024;DHT22;13033;50.936;5.334;2022-07-29T09:05:00;22.90;1.00
25024;DHT22;13033;50.936;5.334;2022-07-29T09:07:26;22.90;1.00
25024;DHT22;13033;50.936;5.334;2022-07-29T09:09:52;23.20;1.00
25024;DHT22;13033;50.936;5.334;2022-07-29T09:12:18;23.40;1.00
25024;DHT22;13033;50.936;5.334;2022-07-29T09:14:44;23.60;1.00
25024;DHT22;13033;50.936;5.334;2022-07-29T09:17:10;23.40;1.00
25024;DHT22;13033;50.936;5.334;2022-07-29T09:19:36;23.20;1.00
25024;DHT22;13033;50.936;5.334;2022-07-29T09:22:06;23.00;1.00
25024;DHT22;13033;50.936;5.334;2022-07-29T09:27:09;23.10;1.00
25024;DHT22;13033;50.936;5.334;2022-07-29T09:29:35;23.10;1.00
25024;DHT22;13033;50.936;5.334;2022-07-29T09:32:07;23.40;1.00
25024;DHT22;13033;50.936;5.334;2022-07-29T09:34:33;23.60;1.00
25024;DHT22;13033;50.936;5.334;2022-07-29T09:36:58;23.70;1.00
25024;DHT22;13033;50.936;5.334;2022-07-29T09:39:36;23.90;1.00
25024;DHT22;13033;50.936;5.334;2022-07-29T09:42:04;23.90;1.00
25024;DHT22;13033;50.936;5.334;2022-07-29T09:44:46;23.90;1.00
25024;DHT22;13033;50.936;5.334;2022-07-29T09:47:13;23.70;1.00
25024;DHT22;13033;50.936;5.334;2022-07-29T09:50:05;23.70;1.00
25024;DHT22;13033;50.936;5.334;2022-07-29T09:52:31;23.90;1.00
25024;DHT22;13033;50.936;5.334;2022-07-29T09:55:08;24.20;1.00
25024;DHT22;13033;50.936;5.334;2022-07-29T09:57:33;24.50;1.00
25024;DHT22;13033;50.936;5.334;2022-07-29T10:02:31;24.90;1.00
25024;DHT22;13033;50.936;5.334;2022-07-29T10:04:57;25.20;1.00
25024;DHT22;13033;50.936;5.334;2022-07-29T10:07:23;25.40;99.90
25024;DHT22;13033;50.936;5.334;2022-07-29T10:09:56;25.40;99.90
25024;DHT22;13033;50.936;5.334;2022-07-29T10:12:23;25.10;99.90
25024;DHT22;13033;50.936;5.334;2022-07-29T10:14:49;25.00;99.90
25024;DHT22;13033;50.936;5.334;2022-07-29T10:17:16;24.90;99.90
25024;DHT22;13033;50.936;5.334;2022-07-29T10:19:42;24.90;99.90
25024;DHT22;13033;50.936;5.334;2022-07-29T10:22:09;25.10;99.90
25024;DHT22;13033;50.936;5.334;2022-07-29T10:24:36;25.30;99.90
25024;DHT22;13033;50.936;5.334;2022-07-29T10:27:07;25.20;99.90
25024;DHT22;13033;50.936;5.334;2022-07-29T10:29:33;25.20;99.90
25024;DHT22;13033;50.936;5.334;2022-07-29T10:43:28;25.40;99.90
25024;DHT22;13033;50.936;5.334;2022-07-29T10:45:59;25.40;90.30
25024;DHT22;13033;50.936;5.334;2022-07-29T10:48:25;25.30;99.90
25024;DHT22;13033;50.936;5.334;2022-07-29T10:51:01;25.60;59.80
25024;DHT22;13033;50.936;5.334;2022-07-29T10:53:49;25.80;7.50
25024;DHT22;13033;50.936;5.334;2022-07-29T10:56:29;26.00;1.00
25024;DHT22;13033;50.936;5.334;2022-07-29T11:01:47;26.00;1.00
25024;DHT22;13033;50.936;5.334;2022-07-29T11:04:13;26.20;99.90
25024;DHT22;13033;50.936;5.334;2022-07-29T11:09:29;26.50;99.90
25024;DHT22;13033;50.936;5.334;2022-07-29T11:11:56;26.30;99.90
25024;DHT22;13033;50.936;5.334;2022-07-29T11:17:18;26.30;99.90
25024;DHT22;13033;50.936;5.334;2022-07-29T11:19:44;26.40;99.90
25024;DHT22;13033;50.936;5.334;2022-07-29T11:22:10;26.60;99.90
25024;DHT22;13033;50.936;5.334;2022-07-29T11:24:37;26.50;99.90
25024;DHT22;13033;50.936;5.334;2022-07-29T11:27:19;26.60;99.90
25024;DHT22;13033;50.936;5.334;2022-07-29T11:29:57;26.40;99.90
25024;DHT22;13033;50.936;5.334;2022-07-29T11:32:24;26.60;99.90
25024;DHT22;13033;50.936;5.334;2022-07-29T11:35:16;27.00;99.90
25024;DHT22;13033;50.936;5.334;2022-07-29T11:37:42;27.50;99.90
25024;DHT22;13033;50.936;5.334;2022-07-29T11:40:10;27.60;97.90
25024;DHT22;13033;50.936;5.334;2022-07-29T11:42:38;27.80;99.90
25024;DHT22;13033;50.936;5.334;2022-07-29T11:47:36;27.90;99.90
25024;DHT22;13033;50.936;5.334;2022-07-29T11:50:04;27.90;99.90
25024;DHT22;13033;50.936;5.334;2022-07-29T11:52:41;27.70;99.90
25024;DHT22;13033;50.936;5.334;2022-07-29T11:55:15;27.80;99.90
25024;DHT22;13033;50.936;5.334;2022-07-29T11:58:00;27.90;99.90
25024;DHT22;13033;50.936;5.334;2022-07-29T12:00:32;27.70;6.50
25024;DHT22;13033;50.936;5.334;2022-07-29T12:02:59;27.90;87.90
25024;DHT22;13033;50.936;5.334;2022-07-29T12:05:40;28.20;99.90
25024;DHT22;13033;50.936;5.334;2022-07-29T12:08:07;28.20;99.90
25024;DHT22;13033;50.936;5.334;2022-07-29T12:10:33;27.70;99.90
25024;DHT22;13033;50.936;5.334;2022-07-29T12:12:59;27.40;1.00
25024;DHT22;13033;50.936;5.334;2022-07-29T12:15:24;26.90;1.00
25024;DHT22;13033;50.936;5.334;2022-07-29T12:17:51;26.50;99.90
25024;DHT22;13033;50.936;5.334;2022-07-29T12:20:28;26.30;99.90
25024;DHT22;13033;50.936;5.334;2022-07-29T12:22:55;26.30;1.00
25024;DHT22;13033;50.936;5.334;2022-07-29T12:25:23;26.40;99.90
25024;DHT22;13033;50.936;5.334;2022-07-29T12:28:00;26.70;1.00
25024;DHT22;13033;50.936;5.334;2022-07-29T12:30:41;27.30;99.90
25024;DHT22;13033;50.936;5.334;2022-07-29T12:33:21;27.60;68.00
25024;DHT22;13033;50.936;5.334;2022-07-29T12:35:57;27.80;1.00
25024;DHT22;13033;50.936;5.334;2022-07-29T12:38:23;28.40;99.90
25024;DHT22;13033;50.936;5.334;2022-07-29T12:40:52;28.70;1.00
25024;DHT22;13033;50.936;5.334;2022-07-29T12:43:20;28.60;1.00
25024;DHT22;13033;50.936;5.334;2022-07-29T12:45:50;28.60;1.00
25024;DHT22;13033;50.936;5.334;2022-07-29T12:48:17;28.40;99.90
25024;DHT22;13033;50.936;5.334;2022-07-29T12:50:59;27.90;1.00
25024;DHT22;13033;50.936;5.334;2022-07-29T12:53:27;27.70;99.90
25024;DHT22;13033;50.936;5.334;2022-07-29T12:55:54;27.70;99.90
25024;DHT22;13033;50.936;5.334;2022-07-29T12:58:37;28.00;1.00
25024;DHT22;13033;50.936;5.334;2022-07-29T13:01:12;28.20;99.90
25024;DHT22;13033;50.936;5.334;2022-07-29T13:06:32;28.30;99.90
25024;DHT22;13033;50.936;5.334;2022-07-29T13:09:35;28.00;99.90
25024;DHT22;13033;50.936;5.334;2022-07-29T13:12:01;28.10;99.90
25024;DHT22;13033;50.936;5.334;2022-07-29T13:14:37;28.50;1.00
25024;DHT22;13033;50.936;5.334;2022-07-29T13:17:20;28.70;1.00
25024;DHT22;13033;50.936;5.334;2022-07-29T13:19:51;28.60;99.90
25024;DHT22;13033;50.936;5.334;2022-07-29T13:22:21;28.90;99.90
25024;DHT22;13033;50.936;5.334;2022-07-29T13:24:56;28.80;67.60
25024;DHT22;13033;50.936;5.334;2022-07-29T13:27:23;28.90;99.90
25024;DHT22;13033;50.936;5.334;2022-07-29T13:29:49;29.10;80.60
25024;DHT22;13033;50.936;5.334;2022-07-29T13:32:19;29.00;1.00
25024;DHT22;13033;50.936;5.334;2022-07-29T13:34:45;28.90;1.00
25024;DHT22;13033;50.936;5.334;2022-07-29T13:37:11;28.90;99.90
25024;DHT22;13033;50.936;5.334;2022-07-29T13:39:37;28.60;1.00
25024;DHT22;13033;50.936;5.334;2022-07-29T13:42:04;28.80;99.90
25024;DHT22;13033;50.936;5.334;2022-07-29T13:44:29;29.10;99.90
25024;DHT22;13033;50.936;5.334;2022-07-29T13:46:55;29.20;1.00
25024;DHT22;13033;50.936;5.334;2022-07-29T13:49:21;28.90;99.90
25024;DHT22;13033;50.936;5.334;2022-07-29T13:51:49;28.90;99.90
25024;DHT22;13033;50.936;5.334;2022-07-29T13:54:14;29.40;3.80
25024;DHT22;13033;50.936;5.334;2022-07-29T13:56:40;30.00;1.00
25024;DHT22;13033;50.936;5.334;2022-07-29T13:59:06;30.70;99.90
25024;DHT22;13033;50.936;5.334;2022-07-29T14:01:34;31.50;99.90
25024;DHT22;13033;50.936;5.334;2022-07-29T14:04:00;32.00;99.90
25024;DHT22;13033;50.936;5.334;2022-07-29T14:06:25;31.90;99.90
25024;DHT22;13033;50.936;5.334;2022-07-29T14:08:51;31.40;99.90
25024;DHT22;13033;50.936;5.334;2022-07-29T14:11:16;31.10;99.90
25024;DHT22;13033;50.936;5.334;2022-07-29T14:13:42;31.00;99.90
25024;DHT22;13033;50.936;5.334;2022-07-29T14:16:08;31.20;99.90
25024;DHT22;13033;50.936;5.334;2022-07-29T14:18:34;31.10;99.90
25024;DHT22;13033;50.936;5.334;2022-07-29T14:20:59;30.50;99.90
25024;DHT22;13033;50.936;5.334;2022-07-29T14:23:25;30.40;99.90
25024;DHT22;13033;50.936;5.334;2022-07-29T14:25:51;30.70;99.90
25024;DHT22;13033;50.936;5.334;2022-07-29T14:28:16;31.40;99.90
25024;DHT22;13033;50.936;5.334;2022-07-29T14:30:42;32.30;93.60
25024;DHT22;13033;50.936;5.334;2022-07-29T14:33:08;32.70;48.20
25024;DHT22;13033;50.936;5.334;2022-07-29T14:35:34;33.10;23.00
25024;DHT22;13033;50.936;5.334;2022-07-29T14:37:59;33.00;3.40
25024;DHT22;13033;50.936;5.334;2022-07-29T14:40:25;31.90;9.20
25024;DHT22;13033;50.936;5.334;2022-07-29T14:42:51;31.10;36.10
25024;DHT22;13033;50.936;5.334;2022-07-29T14:45:17;31.30;47.20
25024;DHT22;13033;50.936;5.334;2022-07-29T14:47:43;32.50;27.00
25024;DHT22;13033;50.936;5.334;2022-07-29T14:50:09;33.60;1.00
25024;DHT22;13033;50.936;5.334;2022-07-29T14:52:35;33.20;1.00
25024;DHT22;13033;50.936;5.334;2022-07-29T14:55:00;33.00;1.00
25024;DHT22;13033;50.936;5.334;2022-07-29T14:57:26;33.40;1.00
25024;DHT22;13033;50.936;5.334;2022-07-29T14:59:51;34.20;1.00
25024;DHT22;13033;50.936;5.334;2022-07-29T15:02:17;33.90;1.00
25024;DHT22;13033;50.936;5.334;2022-07-29T15:04:43;33.20;1.00
25024;DHT22;13033;50.936;5.334;2022-07-29T15:07:11;33.80;1.00
25024;DHT22;13033;50.936;5.334;2022-07-29T15:09:37;34.20;1.00
25024;DHT22;13033;50.936;5.334;2022-07-29T15:12:03;33.90;1.00
25024;DHT22;13033;50.936;5.334;2022-07-29T15:14:29;32.40;1.00
25024;DHT22;13033;50.936;5.334;2022-07-29T15:16:55;31.30;1.00
25024;DHT22;13033;50.936;5.334;2022-07-29T15:19:21;31.00;1.00
25024;DHT22;13033;50.936;5.334;2022-07-29T15:21:46;31.20;1.00
25024;DHT22;13033;50.936;5.334;2022-07-29T15:24:12;31.80;1.00
25024;DHT22;13033;50.936;5.334;2022-07-29T15:26:37;32.90;1.00
25024;DHT22;13033;50.936;5.334;2022-07-29T15:29:03;32.60;1.00
25024;DHT22;13033;50.936;5.334;2022-07-29T15:31:29;32.00;1.00
25024;DHT22;13033;50.936;5.334;2022-07-29T15:33:54;31.70;1.00
25024;DHT22;13033;50.936;5.334;2022-07-29T15:36:20;31.30;1.00
25024;DHT22;13033;50.936;5.334;2022-07-29T15:38:46;31.00;1.00
25024;DHT22;13033;50.936;5.334;2022-07-29T15:41:14;30.40;1.00
25024;DHT22;13033;50.936;5.334;2022-07-29T15:43:43;29.60;1.00
25024;DHT22;13033;50.936;5.334;2022-07-29T15:46:13;29.40;1.00
25024;DHT22;13033;50.936;5.334;2022-07-29T15:48:57;28.90;10.50
25024;DHT22;13033;50.936;5.334;2022-07-29T15:51:23;28.70;37.50
25024;DHT22;13033;50.936;5.334;2022-07-29T15:53:49;28.70;44.80
25024;DHT22;13033;50.936;5.334;2022-07-29T15:56:15;28.70;50.50
25024;DHT22;13033;50.936;5.334;2022-07-29T15:58:40;28.60;51.00
25024;DHT22;13033;50.936;5.334;2022-07-29T16:01:06;28.40;71.00
25024;DHT22;13033;50.936;5.334;2022-07-29T16:03:32;28.30;93.60
25024;DHT22;13033;50.936;5.334;2022-07-29T16:05:57;28.00;99.90
25024;DHT22;13033;50.936;5.334;2022-07-29T16:08:23;27.90;99.90
25024;DHT22;13033;50.936;5.334;2022-07-29T16:10:49;27.70;99.90
25024;DHT22;13033;50.936;5.334;2022-07-29T16:13:14;27.50;99.90
25024;DHT22;13033;50.936;5.334;2022-07-29T16:15:40;27.40;99.90
25024;DHT22;13033;50.936;5.334;2022-07-29T16:18:06;27.30;99.90
25024;DHT22;13033;50.936;5.334;2022-07-29T16:20:33;27.40;99.90